Time;durP1;ratioP1;P1;durP2;ratioP2;P2;SDS_P1;SDS_P2;PMS_P1;PMS_P2;Temp;Humidity;BMP_temperature;BMP_pressure;BME280_temperature;BME280_humidity;BME280_pressure;Samples;Min_cycle;Max_cycle;Signal;HPM_P1;HPM_P2
2021/06/08 00:00:50;;;;;;;37.90;22.92;;;16.80;99.90;;;;;;5070021;28;20476;-78
2021/06/08 00:03:15;;;;;;;39.03;22.70;;;16.70;99.90;;;;;;5072963;28;20024;-78
2021/06/08 00:05:41;;;;;;;33.17;21.70;;;16.70;99.90;;;;;;5073967;28;20032;-78
2021/06/08 00:08:07;;;;;;;36.08;22.08;;;16.70;99.90;;;;;;5072024;28;20486;-77
2021/06/08 00:10:33;;;;;;;34.45;22.33;;;16.80;99.90;;;;;;5069827;28;20039;-77
2021/06/08 00:12:58;;;;;;;36.58;21.48;;;16.80;99.90;;;;;;5084753;28;20029;-77
2021/06/08 00:15:24;;;;;;;36.10;22.08;;;16.80;99.90;;;;;;5069230;28;20116;-77
2021/06/08 00:17:50;;;;;;;34.65;22.05;;;16.80;99.90;;;;;;5069851;28;20101;-77
2021/06/08 00:20:16;;;;;;;34.42;20.83;;;16.80;99.90;;;;;;5068412;28;20482;-77
2021/06/08 00:22:42;;;;;;;34.95;21.25;;;16.80;99.90;;;;;;5068336;28;20037;-77
2021/06/08 00:25:08;;;;;;;34.08;20.70;;;16.80;99.90;;;;;;5069123;28;20032;-77
2021/06/08 00:27:34;;;;;;;37.65;21.77;;;16.70;99.90;;;;;;5070094;28;20029;-77
2021/06/08 00:30:00;;;;;;;28.65;19.55;;;16.70;99.90;;;;;;5068103;28;20119;-77
2021/06/08 00:32:25;;;;;;;30.05;20.10;;;16.70;99.90;;;;;;5069731;28;20468;-77
2021/06/08 00:34:51;;;;;;;29.98;19.80;;;16.70;99.90;;;;;;5068969;28;20078;-77
2021/06/08 00:37:17;;;;;;;34.63;20.67;;;16.70;99.90;;;;;;5069552;28;20032;-77
2021/06/08 00:39:43;;;;;;;30.02;18.45;;;16.70;99.90;;;;;;5069305;28;20024;-77
2021/06/08 00:42:08;;;;;;;30.63;18.27;;;16.60;99.90;;;;;;5069612;28;20483;-77
2021/06/08 00:44:34;;;;;;;33.95;21.52;;;16.60;99.90;;;;;;5068185;28;20440;-77
2021/06/08 00:47:00;;;;;;;39.03;22.08;;;16.60;99.90;;;;;;5069251;28;20162;-77
2021/06/08 00:49:26;;;;;;;32.92;20.08;;;16.60;99.90;;;;;;5068913;28;20126;-77
2021/06/08 00:51:51;;;;;;;32.92;21.40;;;16.60;99.90;;;;;;5066729;28;20029;-77
2021/06/08 00:54:17;;;;;;;35.80;20.45;;;16.60;99.90;;;;;;5069589;28;20040;-77
2021/06/08 00:56:45;;;;;;;36.55;21.65;;;16.60;99.90;;;;;;5068914;28;20020;-76
2021/06/08 00:59:12;;;;;;;34.58;21.75;;;16.60;99.90;;;;;;5066530;28;20130;-77
2021/06/08 01:01:39;;;;;;;31.60;20.10;;;16.60;99.90;;;;;;5069111;28;20082;-78
2021/06/08 01:04:07;;;;;;;32.40;20.92;;;16.60;99.90;;;;;;5069607;28;20079;-78
2021/06/08 01:06:34;;;;;;;33.72;20.95;;;16.50;99.90;;;;;;5072158;28;20024;-78
2021/06/08 01:09:00;;;;;;;31.17;20.10;;;16.50;99.90;;;;;;5075542;28;20025;-78
2021/06/08 01:11:26;;;;;;;31.23;19.88;;;16.60;99.90;;;;;;5073380;28;20056;-78
2021/06/08 01:13:51;;;;;;;33.88;20.75;;;16.50;99.90;;;;;;5090325;28;20037;-77
2021/06/08 01:16:17;;;;;;;31.95;19.02;;;16.50;99.90;;;;;;5075907;28;20044;-78
2021/06/08 01:18:43;;;;;;;31.25;19.23;;;16.50;99.90;;;;;;5075104;28;20068;-77
2021/06/08 01:21:10;;;;;;;33.38;19.75;;;16.50;99.90;;;;;;5075387;28;20074;-78
2021/06/08 01:23:38;;;;;;;38.63;22.55;;;16.50;99.90;;;;;;5072660;28;20602;-77
2021/06/08 01:26:05;;;;;;;33.47;20.73;;;16.50;99.90;;;;;;5070760;28;20115;-77
2021/06/08 01:28:33;;;;;;;28.23;18.30;;;16.40;99.90;;;;;;5073852;28;20041;-78
2021/06/08 01:31:04;;;;;;;30.23;19.67;;;16.40;99.90;;;;;;5091273;28;20585;-78
2021/06/08 01:33:30;;;;;;;31.55;19.23;;;16.40;99.90;;;;;;5074689;28;20124;-78
2021/06/08 01:35:57;;;;;;;31.75;19.20;;;16.40;99.90;;;;;;5074577;28;20111;-78
2021/06/08 01:38:23;;;;;;;32.47;20.27;;;16.30;99.90;;;;;;5087211;28;20033;-78
2021/06/08 01:40:51;;;;;;;34.35;21.17;;;16.30;99.90;;;;;;5073735;28;20033;-78
2021/06/08 01:43:18;;;;;;;34.45;21.30;;;16.30;99.90;;;;;;5075281;28;20024;-77
2021/06/08 01:45:49;;;;;;;35.42;20.58;;;16.30;99.90;;;;;;5071949;28;20032;-78
2021/06/08 01:48:15;;;;;;;34.92;21.55;;;16.30;99.90;;;;;;5056553;28;20033;-77
2021/06/08 01:50:42;;;;;;;35.78;21.88;;;16.20;99.90;;;;;;5075087;28;20119;-77
2021/06/08 01:53:18;;;;;;;37.17;22.17;;;16.20;99.90;;;;;;5074913;28;20032;-77
2021/06/08 01:55:45;;;;;;;33.95;21.95;;;16.20;99.90;;;;;;5073429;28;20041;-78
2021/06/08 01:58:19;;;;;;;36.95;23.80;;;16.20;99.90;;;;;;5072030;28;20521;-78
2021/06/08 02:00:52;;;;;;;38.22;23.33;;;16.20;99.90;;;;;;5088757;28;20086;-78
2021/06/08 02:03:38;;;;;;;39.55;23.63;;;16.20;99.90;;;;;;5089586;28;20086;-78
2021/06/08 02:06:14;;;;;;;;;;;16.20;99.90;;;;;;5088611;28;20058;-77
2021/06/08 02:08:41;;;;;;;37.58;21.48;;;16.20;99.90;;;;;;5088929;28;19943;-78
2021/06/08 02:11:22;;;;;;;41.17;24.00;;;16.10;99.90;;;;;;5074123;28;20637;-78
2021/06/08 02:13:53;;;;;;;41.90;24.75;;;16.10;99.90;;;;;;5071772;28;20040;-78
2021/06/08 02:16:35;;;;;;;40.95;23.67;;;16.20;99.90;;;;;;5073456;28;20509;-78
2021/06/08 02:19:02;;;;;;;42.38;22.85;;;16.10;99.90;;;;;;5072341;28;20145;-77
2021/06/08 02:21:33;;;;;;;36.28;21.73;;;16.10;99.90;;;;;;5074613;28;20104;-78
2021/06/08 02:24:02;;;;;;;40.33;22.95;;;16.00;99.90;;;;;;5074488;28;20051;-78
2021/06/08 02:26:30;;;;;;;41.65;24.33;;;16.10;99.90;;;;;;5059932;28;20032;-78
2021/06/08 02:28:56;;;;;;;37.78;23.77;;;16.00;99.90;;;;;;5089637;28;20119;-78
2021/06/08 02:31:24;;;;;;;36.28;21.35;;;16.00;99.90;;;;;;5086571;28;20391;-78
2021/06/08 02:33:51;;;;;;;40.15;22.70;;;16.00;99.90;;;;;;5073187;28;20089;-77
2021/06/08 02:36:17;;;;;;;41.25;23.50;;;15.90;99.90;;;;;;5071169;28;20512;-78
2021/06/08 02:38:45;;;;;;;42.55;24.40;;;15.90;99.90;;;;;;5071825;28;20032;-78
2021/06/08 02:41:12;;;;;;;37.47;23.20;;;15.90;99.90;;;;;;5074233;28;20077;-78
2021/06/08 02:43:39;;;;;;;34.53;21.48;;;16.00;99.90;;;;;;5073693;28;20036;-77
2021/06/08 02:46:07;;;;;;;38.97;22.65;;;15.90;99.90;;;;;;5085894;28;20029;-77
2021/06/08 02:48:34;;;;;;;31.20;19.33;;;15.90;99.90;;;;;;5071223;28;20032;-77
2021/06/08 02:51:01;;;;;;;33.10;19.67;;;15.90;99.90;;;;;;5072556;28;20029;-78
2021/06/08 02:53:28;;;;;;;33.95;20.52;;;15.80;99.90;;;;;;5072914;28;20106;-78
2021/06/08 02:55:54;;;;;;;32.92;18.60;;;15.80;99.90;;;;;;5072320;28;20036;-78
2021/06/08 02:58:22;;;;;;;29.77;18.42;;;15.80;99.90;;;;;;5073361;28;20031;-78
2021/06/08 03:00:49;;;;;;;30.00;17.63;;;15.70;99.90;;;;;;5074136;28;20131;-77
2021/06/08 03:03:21;;;;;;;28.13;17.20;;;15.70;99.90;;;;;;5072433;28;20028;-78
2021/06/08 03:05:56;;;;;;;28.42;18.35;;;15.60;99.90;;;;;;5074428;28;20104;-78
2021/06/08 03:08:29;;;;;;;27.63;18.25;;;15.60;99.90;;;;;;5071863;28;20063;-78
2021/06/08 03:10:57;;;;;;;31.70;18.80;;;15.60;99.90;;;;;;5071195;28;20073;-78
2021/06/08 03:13:24;;;;;;;27.90;18.35;;;15.50;99.90;;;;;;5073207;28;20123;-78
2021/06/08 03:15:55;;;;;;;29.17;18.63;;;15.50;99.90;;;;;;5072163;28;20039;-78
2021/06/08 03:18:26;;;;;;;30.23;18.80;;;15.50;99.90;;;;;;5071377;28;20487;-77
2021/06/08 03:21:02;;;;;;;33.17;20.25;;;15.50;99.90;;;;;;5054764;28;20106;-78
2021/06/08 03:23:36;;;;;;;37.00;20.95;;;15.50;99.90;;;;;;5072041;28;20090;-78
2021/06/08 03:26:04;;;;;;;33.25;20.58;;;15.40;99.90;;;;;;5072819;28;20073;-77
2021/06/08 03:28:32;;;;;;;36.88;20.45;;;15.40;99.90;;;;;;5072069;28;20035;-77
2021/06/08 03:30:59;;;;;;;40.53;22.88;;;15.40;99.90;;;;;;5072826;28;20028;-77
2021/06/08 03:33:26;;;;;;;41.30;23.75;;;15.50;99.90;;;;;;5071063;28;20040;-77
2021/06/08 03:35:54;;;;;;;35.47;21.85;;;15.50;99.90;;;;;;5072183;28;20044;-78
2021/06/08 03:38:22;;;;;;;36.75;21.70;;;15.50;99.90;;;;;;5070122;28;20081;-77
2021/06/08 03:40:50;;;;;;;35.47;21.98;;;15.50;99.90;;;;;;5072543;28;20378;-77
2021/06/08 03:43:17;;;;;;;38.13;22.23;;;15.60;99.90;;;;;;5072403;28;20032;-77
2021/06/08 03:45:47;;;;;;;35.25;21.15;;;15.60;99.90;;;;;;5071787;28;20067;-78
2021/06/08 03:48:14;;;;;;;37.72;22.58;;;15.60;99.90;;;;;;5072934;28;20092;-77
2021/06/08 03:50:42;;;;;;;43.20;23.45;;;15.70;99.90;;;;;;5072212;28;20032;-77
2021/06/08 03:53:07;;;;;;;37.10;21.52;;;15.70;99.90;;;;;;5070823;28;20040;-77
2021/06/08 03:55:33;;;;;;;39.45;22.80;;;15.80;99.90;;;;;;5070445;28;20036;-78
2021/06/08 03:58:06;;;;;;;41.08;22.58;;;15.80;99.90;;;;;;5070780;28;20036;-78
2021/06/08 04:00:32;;;;;;;37.33;22.10;;;15.90;99.90;;;;;;5069976;28;20031;-77
2021/06/08 04:02:58;;;;;;;38.63;22.45;;;15.80;99.90;;;;;;5072832;28;20048;-77
2021/06/08 04:05:24;;;;;;;39.78;22.25;;;15.90;99.90;;;;;;5087386;28;20067;-78
2021/06/08 04:07:50;;;;;;;42.13;23.42;;;16.00;99.90;;;;;;5072012;28;20075;-78
2021/06/08 04:10:18;;;;;;;37.13;23.17;;;16.00;99.90;;;;;;5070744;28;20730;-77
2021/06/08 04:12:44;;;;;;;37.58;22.38;;;16.10;99.90;;;;;;5071650;28;20563;-78
2021/06/08 04:15:11;;;;;;;40.63;22.58;;;16.20;99.90;;;;;;5071264;28;20024;-78
2021/06/08 04:17:37;;;;;;;41.13;22.00;;;16.20;99.90;;;;;;5072945;28;20039;-77
2021/06/08 04:20:09;;;;;;;38.05;21.48;;;16.20;99.90;;;;;;5073395;28;20032;-77
2021/06/08 04:22:40;;;;;;;38.60;21.77;;;16.20;99.90;;;;;;5086597;28;20041;-77
2021/06/08 04:25:08;;;;;;;35.53;20.58;;;16.30;99.90;;;;;;5086172;28;20024;-78
2021/06/08 04:27:35;;;;;;;38.13;21.80;;;16.20;99.90;;;;;;5072921;28;20115;-77
2021/06/08 04:30:02;;;;;;;35.95;20.63;;;16.30;99.90;;;;;;5074946;28;20044;-77
2021/06/08 04:32:27;;;;;;;35.00;20.23;;;16.20;99.90;;;;;;5072404;28;20043;-77
2021/06/08 04:34:55;;;;;;;38.08;20.75;;;16.30;99.90;;;;;;5072436;28;20033;-77
2021/06/08 04:37:21;;;;;;;36.83;22.13;;;16.30;99.90;;;;;;5073723;28;20579;-77
2021/06/08 04:39:48;;;;;;;35.05;20.50;;;16.30;99.90;;;;;;5074076;28;20028;-77
2021/06/08 04:42:15;;;;;;;36.15;21.50;;;16.30;99.90;;;;;;5074405;28;20032;-78
2021/06/08 04:44:46;;;;;;;32.92;20.25;;;16.40;99.90;;;;;;5074469;28;20529;-77
2021/06/08 04:47:12;;;;;;;38.05;21.33;;;16.40;99.90;;;;;;5076322;28;20043;-77
2021/06/08 04:49:39;;;;;;;32.20;20.13;;;16.40;99.90;;;;;;5073203;28;20029;-77
2021/06/08 04:52:06;;;;;;;33.47;20.25;;;16.40;99.90;;;;;;5074953;28;20072;-78
2021/06/08 04:54:33;;;;;;;33.10;19.88;;;16.50;99.90;;;;;;5089617;28;20076;-77
2021/06/08 04:57:00;;;;;;;36.90;21.13;;;16.60;99.90;;;;;;5089919;28;20028;-78
2021/06/08 04:59:34;;;;;;;34.85;19.92;;;16.70;99.90;;;;;;5073997;28;20048;-77
2021/06/08 05:02:05;;;;;;;32.83;19.25;;;16.70;99.90;;;;;;5071346;28;20025;-77
2021/06/08 05:04:33;;;;;;;33.80;21.38;;;16.80;99.90;;;;;;5073986;28;20459;-78
2021/06/08 05:07:03;;;;;;;32.97;20.27;;;16.80;99.90;;;;;;5073346;28;20053;-78
2021/06/08 05:09:32;;;;;;;33.30;20.00;;;16.90;99.90;;;;;;5072938;28;20085;-78
2021/06/08 05:12:05;;;;;;;35.13;20.23;;;17.00;99.90;;;;;;5071325;28;20033;-78
2021/06/08 05:14:31;;;;;;;32.58;20.73;;;17.00;99.90;;;;;;5072866;28;20049;-77
2021/06/08 05:16:58;;;;;;;31.85;20.00;;;17.10;99.90;;;;;;5075162;28;20040;-78
2021/06/08 05:19:25;;;;;;;31.38;18.85;;;17.20;99.90;;;;;;5074362;28;20033;-78
2021/06/08 05:21:51;;;;;;;31.90;18.48;;;17.20;99.90;;;;;;5073701;28;20572;-78
2021/06/08 05:24:18;;;;;;;31.42;19.90;;;17.40;99.90;;;;;;5072678;28;20032;-77
2021/06/08 05:26:46;;;;;;;31.60;18.35;;;17.40;99.90;;;;;;5071548;28;20256;-78
2021/06/08 05:29:18;;;;;;;28.95;16.98;;;17.60;99.90;;;;;;5070706;28;20169;-77
2021/06/08 05:31:44;;;;;;;29.02;18.48;;;17.90;99.90;;;;;;5074196;28;20082;-77
2021/06/08 05:34:11;;;;;;;31.17;18.77;;;18.20;99.90;;;;;;5073533;28;20029;-78
2021/06/08 05:36:38;;;;;;;32.10;18.70;;;18.50;99.90;;;;;;5071318;28;20123;-77
2021/06/08 05:39:05;;;;;;;27.65;17.88;;;18.80;99.90;;;;;;5072620;28;20123;-77
2021/06/08 05:41:31;;;;;;;27.63;17.58;;;19.00;99.90;;;;;;5074229;28;20032;-78
2021/06/08 05:43:57;;;;;;;30.13;18.00;;;19.30;99.90;;;;;;5074456;28;20485;-78
2021/06/08 05:46:22;;;;;;;28.55;16.33;;;19.70;99.90;;;;;;5073264;28;20029;-78
2021/06/08 05:48:48;;;;;;;28.88;16.15;;;20.20;99.90;;;;;;5074839;28;20036;-78
2021/06/08 05:51:14;;;;;;;22.77;15.13;;;20.60;99.90;;;;;;5075763;28;20025;-78
2021/06/08 05:53:44;;;;;;;24.45;15.88;;;21.00;99.90;;;;;;5076100;28;20498;-77
2021/06/08 05:56:11;;;;;;;24.70;15.93;;;21.50;99.90;;;;;;5076366;28;20129;-78
2021/06/08 05:58:37;;;;;;;20.23;14.45;;;21.90;99.90;;;;;;5075195;28;20115;-77
2021/06/08 06:01:04;;;;;;;21.13;14.70;;;22.20;99.90;;;;;;5076908;28;20100;-78
2021/06/08 06:03:33;;;;;;;23.85;14.10;;;22.60;99.90;;;;;;5077281;28;20033;-77
2021/06/08 06:06:01;;;;;;;19.20;13.25;;;22.90;99.90;;;;;;5058061;28;20029;-78
2021/06/08 06:08:26;;;;;;;17.92;13.10;;;23.20;99.90;;;;;;5091931;28;20029;-77
2021/06/08 06:10:53;;;;;;;21.08;13.50;;;23.60;99.90;;;;;;5076611;28;20055;-77
2021/06/08 06:13:25;;;;;;;19.33;13.07;;;23.90;99.90;;;;;;5076306;28;20032;-78
2021/06/08 06:15:52;;;;;;;18.02;12.00;;;24.20;99.90;;;;;;5074734;28;20048;-78
2021/06/08 06:18:19;;;;;;;17.70;12.02;;;24.50;99.90;;;;;;5074769;28;20036;-78
2021/06/08 06:20:50;;;;;;;17.83;12.30;;;24.70;99.90;;;;;;5076856;28;20099;-78
2021/06/08 06:23:24;;;;;;;18.65;12.18;;;24.80;99.90;;;;;;5074416;28;20471;-79
2021/06/08 06:25:51;;;;;;;16.02;11.57;;;25.10;99.90;;;;;;5073218;28;20036;-78
2021/06/08 06:28:18;;;;;;;20.88;13.35;;;25.30;99.90;;;;;;5085796;28;20134;-79
2021/06/08 06:30:44;;;;;;;19.48;12.88;;;25.60;99.90;;;;;;5073923;28;20048;-78
2021/06/08 06:33:10;;;;;;;18.27;12.95;;;25.80;99.90;;;;;;5074865;28;20029;-78
2021/06/08 06:35:37;;;;;;;17.02;11.75;;;26.00;99.90;;;;;;5075603;28;20127;-78
2021/06/08 06:38:06;;;;;;;18.45;12.75;;;26.20;99.90;;;;;;5073013;28;20115;-78
2021/06/08 06:40:34;;;;;;;15.45;11.07;;;26.50;99.90;;;;;;5074235;28;20558;-78
2021/06/08 06:43:03;;;;;;;15.07;10.98;;;27.00;98.40;;;;;;5076054;28;20039;-78
2021/06/08 06:45:31;;;;;;;16.35;10.65;;;27.40;97.50;;;;;;5072441;28;20103;-78
2021/06/08 06:48:03;;;;;;;13.93;10.63;;;27.60;93.90;;;;;;5073005;28;20036;-77
2021/06/08 06:50:35;;;;;;;16.42;11.90;;;27.80;93.40;;;;;;5071219;28;20033;-78
2021/06/08 06:53:02;;;;;;;15.90;10.07;;;28.00;91.40;;;;;;5072542;28;20764;-78
2021/06/08 06:55:29;;;;;;;14.88;10.73;;;28.20;90.80;;;;;;5071355;28;20561;-78
2021/06/08 06:57:55;;;;;;;15.85;10.98;;;28.30;90.00;;;;;;5074226;28;20037;-78
2021/06/08 07:00:22;;;;;;;15.73;10.85;;;28.50;84.70;;;;;;5076564;28;20055;-78
2021/06/08 07:02:50;;;;;;;14.65;10.88;;;28.50;85.90;;;;;;5075577;28;20033;-77
2021/06/08 07:05:19;;;;;;;14.80;10.88;;;28.40;81.40;;;;;;5073304;28;20036;-78
2021/06/08 07:07:47;;;;;;;14.02;10.25;;;28.40;82.50;;;;;;5089760;28;20043;-78
2021/06/08 07:10:18;;;;;;;15.95;10.32;;;28.50;81.90;;;;;;5075838;28;20037;-78
2021/06/08 07:12:46;;;;;;;13.73;10.02;;;28.10;79.20;;;;;;5074632;28;20048;-78
2021/06/08 07:15:14;;;;;;;16.67;10.95;;;28.30;83.90;;;;;;5074285;28;20119;-78
2021/06/08 07:17:41;;;;;;;13.23;9.70;;;28.40;80.10;;;;;;5074821;28;20039;-79
2021/06/08 07:20:09;;;;;;;15.48;10.65;;;28.60;80.40;;;;;;5073535;28;20033;-78
2021/06/08 07:22:36;;;;;;;11.60;9.60;;;28.70;79.60;;;;;;5075110;28;20039;-78
2021/06/08 07:25:03;;;;;;;11.32;8.82;;;28.80;80.50;;;;;;5088590;28;20032;-78
2021/06/08 07:27:29;;;;;;;12.25;9.30;;;29.20;76.20;;;;;;5069325;28;20397;-77
2021/06/08 07:29:56;;;;;;;13.10;8.70;;;29.50;76.40;;;;;;5070614;28;20119;-78
2021/06/08 07:32:29;;;;;;;12.68;9.93;;;29.70;76.00;;;;;;5072241;28;20113;-78
2021/06/08 07:35:10;;;;;;;10.88;8.80;;;29.90;72.80;;;;;;5070406;28;20398;-77
2021/06/08 07:37:42;;;;;;;14.32;9.70;;;30.20;70.90;;;;;;5071286;28;20040;-79
2021/06/08 07:40:19;;;;;;;14.25;10.48;;;30.10;66.30;;;;;;5070573;28;20032;-78
2021/06/08 07:42:52;;;;;;;11.20;9.23;;;29.80;67.20;;;;;;5065833;28;20495;-77
2021/06/08 07:45:32;;;;;;;12.52;9.80;;;29.60;70.80;;;;;;5082629;28;20402;-77
2021/06/08 07:47:59;;;;;;;14.95;11.18;;;29.40;70.50;;;;;;5068060;28;20025;-78
2021/06/08 07:50:38;;;;;;;16.77;11.07;;;28.60;68.10;;;;;;5066083;28;20037;-76
2021/06/08 07:53:04;;;;;;;13.43;10.07;;;27.60;72.90;;;;;;5065526;28;20605;-76
2021/06/08 07:55:31;;;;;;;17.45;9.95;;;27.00;76.50;;;;;;5067172;28;20442;-77
2021/06/08 07:57:57;;;;;;;11.18;8.65;;;26.20;79.50;;;;;;5063833;28;20044;-77
2021/06/08 08:00:23;;;;;;;13.98;10.15;;;25.70;82.50;;;;;;5067003;28;20561;-78
2021/06/08 08:02:53;;;;;;;15.10;10.32;;;25.40;84.50;;;;;;5067070;28;20031;-77
2021/06/08 08:05:22;;;;;;;13.75;10.20;;;25.40;85.10;;;;;;5064972;28;20103;-77
2021/06/08 08:07:49;;;;;;;14.10;10.43;;;25.40;87.70;;;;;;5070020;28;20388;-77
2021/06/08 08:10:19;;;;;;;13.13;9.07;;;25.70;84.80;;;;;;5059456;28;20597;-79
2021/06/08 08:12:47;;;;;;;10.98;9.02;;;26.10;85.50;;;;;;5070358;28;20024;-79
2021/06/08 08:15:13;;;;;;;12.88;9.23;;;26.30;87.40;;;;;;5066335;28;20123;-78
2021/06/08 08:17:41;;;;;;;14.07;10.30;;;26.50;84.80;;;;;;5068895;28;20033;-79
2021/06/08 08:20:09;;;;;;;11.50;9.18;;;26.40;89.50;;;;;;5071781;28;20036;-80
2021/06/08 08:22:35;;;;;;;12.27;9.18;;;26.50;86.30;;;;;;5069295;28;20032;-79
2021/06/08 08:25:01;;;;;;;11.48;9.73;;;26.60;85.10;;;;;;5067857;28;20047;-80
2021/06/08 08:27:27;;;;;;;11.43;9.50;;;26.60;80.50;;;;;;5070432;28;20020;-79
2021/06/08 08:29:53;;;;;;;10.43;8.18;;;26.20;86.80;;;;;;5073472;28;20094;-79
2021/06/08 08:32:19;;;;;;;12.18;9.63;;;26.30;86.20;;;;;;5056705;28;20025;-79
2021/06/08 08:34:45;;;;;;;12.18;9.05;;;26.40;84.80;;;;;;5073987;28;20028;-80
2021/06/08 08:37:11;;;;;;;12.57;9.63;;;26.40;83.60;;;;;;5072819;28;20550;-80
2021/06/08 08:39:38;;;;;;;11.25;9.00;;;26.20;86.10;;;;;;5073988;28;20037;-80
2021/06/08 08:42:05;;;;;;;11.60;8.77;;;26.40;86.00;;;;;;5073646;28;20024;-80
2021/06/08 08:44:31;;;;;;;9.77;8.20;;;26.80;86.00;;;;;;5073190;28;20099;-80
2021/06/08 08:46:57;;;;;;;10.02;7.95;;;27.00;86.20;;;;;;5068623;28;20037;-80
2021/06/08 08:49:23;;;;;;;13.43;9.57;;;27.30;84.80;;;;;;5069602;28;20395;-79
2021/06/08 08:51:50;;;;;;;13.00;9.82;;;27.50;80.80;;;;;;5069301;28;20089;-78
2021/06/08 08:54:20;;;;;;;12.30;10.13;;;27.70;78.90;;;;;;5071142;28;20032;-80
2021/06/08 08:56:47;;;;;;;12.52;9.88;;;27.70;82.30;;;;;;5070217;28;20058;-80
2021/06/08 08:59:15;;;;;;;11.73;9.57;;;27.70;76.90;;;;;;5072149;28;20059;-79
2021/06/08 09:01:46;;;;;;;10.63;8.77;;;27.30;78.60;;;;;;5068351;28;20025;-79
2021/06/08 09:04:12;;;;;;;9.82;7.88;;;26.90;78.20;;;;;;5068902;28;20025;-80
2021/06/08 09:06:38;;;;;;;11.40;9.30;;;26.60;81.90;;;;;;5069618;28;20429;-79
2021/06/08 09:09:07;;;;;;;11.05;9.10;;;26.40;83.80;;;;;;5068884;28;20113;-79
2021/06/08 09:11:37;;;;;;;10.50;8.85;;;26.10;83.60;;;;;;5083877;28;20091;-79
2021/06/08 09:14:04;;;;;;;11.20;8.48;;;25.80;86.60;;;;;;5062887;28;20029;-78
2021/06/08 09:16:30;;;;;;;10.75;8.60;;;25.50;86.80;;;;;;5068614;28;20083;-79
2021/06/08 09:18:56;;;;;;;11.18;8.00;;;25.30;87.00;;;;;;5070103;28;20089;-79
2021/06/08 09:21:28;;;;;;;10.82;8.80;;;25.10;88.70;;;;;;5072281;28;20449;-79
2021/06/08 09:24:13;;;;;;;11.52;9.10;;;25.00;90.40;;;;;;5071708;28;20144;-79
2021/06/08 09:27:00;;;;;;;11.10;9.18;;;24.90;90.80;;;;;;5070022;28;20028;-79
2021/06/08 09:29:43;;;;;;;10.57;8.68;;;24.90;90.50;;;;;;5074438;28;20052;-78
2021/06/08 09:32:21;;;;;;;9.80;8.43;;;24.80;91.80;;;;;;5072862;28;20088;-79
2021/06/08 09:34:47;;;;;;;12.60;9.15;;;24.70;91.60;;;;;;5077766;28;20107;-79
2021/06/08 09:37:13;;;;;;;11.18;8.50;;;24.60;92.60;;;;;;5073714;28;20063;-79
2021/06/08 09:39:46;;;;;;;10.32;9.23;;;24.70;92.00;;;;;;5068383;28;20053;-77
2021/06/08 09:42:27;;;;;;;10.77;9.15;;;24.80;92.00;;;;;;5068306;28;20040;-77
2021/06/08 09:44:53;;;;;;;11.30;9.27;;;24.70;93.30;;;;;;5068369;28;20036;-77
2021/06/08 09:47:28;;;;;;;10.13;8.52;;;24.60;90.80;;;;;;5063809;28;20108;-78
2021/06/08 09:49:53;;;;;;;11.48;8.48;;;24.70;93.30;;;;;;5071975;28;20033;-79
2021/06/08 09:52:20;;;;;;;10.40;8.85;;;24.70;93.40;;;;;;5074645;28;20024;-79
2021/06/08 09:54:52;;;;;;;11.80;9.10;;;24.70;91.30;;;;;;5085321;28;20040;-79
2021/06/08 09:57:27;;;;;;;10.38;8.63;;;24.80;93.20;;;;;;5071732;28;20737;-77
2021/06/08 10:00:08;;;;;;;11.20;8.65;;;24.90;92.50;;;;;;5069847;28;20123;-78
2021/06/08 10:02:48;;;;;;;9.05;7.70;;;25.00;92.20;;;;;;5063821;28;20024;-79
2021/06/08 10:05:16;;;;;;;10.55;8.93;;;25.00;89.90;;;;;;5052777;28;20090;-77
2021/06/08 10:07:42;;;;;;;9.35;8.35;;;24.90;91.30;;;;;;5072916;28;20027;-78
2021/06/08 10:10:16;;;;;;;10.90;8.57;;;24.90;92.10;;;;;;5071955;28;20103;-78
2021/06/08 10:12:59;;;;;;;10.52;8.85;;;25.00;91.80;;;;;;5066595;28;20025;-77
2021/06/08 10:15:30;;;;;;;9.95;8.43;;;25.10;90.90;;;;;;5071266;28;20033;-79
2021/06/08 10:18:01;;;;;;;11.00;9.15;;;25.20;92.00;;;;;;5072229;28;20033;-78
2021/06/08 10:20:30;;;;;;;9.73;7.75;;;25.10;91.20;;;;;;5071112;28;20036;-78
2021/06/08 10:22:57;;;;;;;10.88;8.55;;;25.00;86.80;;;;;;5073151;28;20036;-78
2021/06/08 10:25:23;;;;;;;8.05;7.10;;;24.90;88.70;;;;;;5068053;28;20024;-78
2021/06/08 10:27:49;;;;;;;10.60;8.00;;;24.80;91.20;;;;;;5071689;28;20039;-79
2021/06/08 10:30:15;;;;;;;10.13;7.93;;;24.90;90.20;;;;;;5069549;28;20092;-79
2021/06/08 10:32:41;;;;;;;9.25;7.50;;;25.00;90.70;;;;;;5069716;28;20085;-79
2021/06/08 10:35:08;;;;;;;9.93;7.90;;;25.20;89.90;;;;;;5073788;28;20027;-81
2021/06/08 10:37:36;;;;;;;8.43;7.28;;;25.20;87.20;;;;;;5074315;28;20040;-80
2021/06/08 10:40:04;;;;;;;9.32;7.90;;;25.20;84.50;;;;;;5067898;28;20041;-77
2021/06/08 10:42:30;;;;;;;8.75;7.40;;;25.20;87.90;;;;;;5069867;28;20406;-76
2021/06/08 10:45:14;;;;;;;10.88;7.65;;;25.20;87.30;;;;;;5072111;28;20020;-78
2021/06/08 10:47:52;;;;;;;8.88;6.60;;;25.10;86.30;;;;;;5071739;28;20043;-78
2021/06/08 10:50:31;;;;;;;7.93;6.65;;;25.10;87.70;;;;;;5073591;28;20047;-78
2021/06/08 10:52:58;;;;;;;8.48;6.63;;;25.20;86.80;;;;;;5074014;28;20532;-78
2021/06/08 10:55:36;;;;;;;9.68;7.05;;;25.20;81.20;;;;;;5071180;28;20024;-77
2021/06/08 10:58:04;;;;;;;10.27;6.95;;;25.30;81.90;;;;;;5069636;28;20047;-77
2021/06/08 11:00:36;;;;;;;6.85;6.18;;;25.40;79.10;;;;;;5073386;28;20483;-78
2021/06/08 11:03:03;;;;;;;8.07;7.28;;;25.60;84.80;;;;;;5073556;28;20041;-78
2021/06/08 11:05:44;;;;;;;8.10;6.55;;;25.90;84.20;;;;;;5073414;28;20041;-78
2021/06/08 11:08:11;;;;;;;7.22;6.47;;;26.20;87.30;;;;;;5072828;28;20024;-78
2021/06/08 11:10:42;;;;;;;7.85;6.60;;;26.40;81.40;;;;;;5074374;28;20028;-79
2021/06/08 11:13:12;;;;;;;8.02;7.22;;;26.50;83.80;;;;;;5073963;28;20116;-77
2021/06/08 11:15:41;;;;;;;7.85;7.07;;;26.40;78.70;;;;;;5073884;28;20043;-79
2021/06/08 11:18:22;;;;;;;6.43;5.78;;;26.30;79.50;;;;;;5078546;28;20126;-78
2021/06/08 11:20:49;;;;;;;7.22;6.25;;;26.40;83.10;;;;;;5077336;28;20037;-78
2021/06/08 11:23:42;;;;;;;7.93;6.13;;;26.60;81.90;;;;;;5079802;28;20111;-78
2021/06/08 11:26:09;;;;;;;8.38;7.05;;;26.90;81.40;;;;;;5076957;28;20035;-78
2021/06/08 11:28:52;;;;;;;9.52;6.65;;;27.10;73.50;;;;;;5076766;28;20047;-78
2021/06/08 11:31:21;;;;;;;7.45;6.40;;;27.00;76.80;;;;;;5080197;28;20047;-77
2021/06/08 11:33:49;;;;;;;7.80;6.95;;;27.10;78.70;;;;;;5077440;28;20056;-78
2021/06/08 11:36:22;;;;;;;7.32;6.60;;;27.10;78.50;;;;;;5074415;28;20036;-77
2021/06/08 11:39:22;;;;;;;7.75;6.95;;;27.10;80.90;;;;;;5081943;28;20376;-79
2021/06/08 11:41:59;;;;;;;7.90;6.55;;;27.10;74.20;;;;;;5043727;28;20202;-77
2021/06/08 11:44:25;;;;;;;7.78;6.53;;;27.10;73.00;;;;;;5064782;28;20044;-76
2021/06/08 11:46:59;;;;;;;6.82;6.13;;;27.00;74.30;;;;;;5062512;28;20420;-77
2021/06/08 11:49:28;;;;;;;7.47;6.72;;;26.80;79.10;;;;;;5067305;28;20029;-77
2021/06/08 11:52:17;;;;;;;6.30;5.70;;;26.70;73.30;;;;;;5070323;28;20078;-77
2021/06/08 11:54:51;;;;;;;5.07;4.25;;;26.60;71.20;;;;;;5068444;28;20058;-76
2021/06/08 11:57:38;;;;;;;5.57;4.63;;;26.60;71.30;;;;;;5073937;28;20055;-76
2021/06/08 12:00:06;;;;;;;5.18;4.68;;;26.50;75.10;;;;;;5068254;28;20056;-76
2021/06/08 12:02:32;;;;;;;5.72;5.15;;;26.50;77.00;;;;;;5071790;28;20040;-77
2021/06/08 12:05:04;;;;;;;4.82;4.43;;;26.60;72.40;;;;;;5071703;28;20089;-77
2021/06/08 12:07:48;;;;;;;5.85;4.97;;;26.90;67.60;;;;;;5065294;28;20020;-77
2021/06/08 12:10:39;;;;;;;5.40;4.90;;;27.20;68.90;;;;;;5071674;28;20036;-77
2021/06/08 12:13:05;;;;;;;5.65;5.15;;;27.40;67.00;;;;;;5054455;28;20024;-76
2021/06/08 12:15:38;;;;;;;5.22;4.38;;;27.50;67.10;;;;;;5053111;28;20227;-77
2021/06/08 12:18:06;;;;;;;5.63;5.03;;;27.50;69.40;;;;;;5033985;28;20068;-76
2021/06/08 12:20:35;;;;;;;5.47;4.63;;;27.40;67.60;;;;;;5081371;28;20135;-77
2021/06/08 12:23:01;;;;;;;5.25;4.75;;;27.30;69.30;;;;;;5068572;28;20019;-76
2021/06/08 12:25:27;;;;;;;6.15;5.55;;;27.30;68.70;;;;;;5062974;28;20036;-77
2021/06/08 12:27:53;;;;;;;7.22;5.20;;;27.10;69.40;;;;;;5050281;28;20044;-77
2021/06/08 12:30:27;;;;;;;6.57;5.60;;;27.00;71.40;;;;;;5085264;28;20021;-77
2021/06/08 12:32:59;;;;;;;4.93;4.43;;;26.80;71.40;;;;;;5072482;28;20039;-77
2021/06/08 12:35:34;;;;;;;6.78;5.60;;;26.60;73.70;;;;;;5070193;28;20032;-77
2021/06/08 12:38:16;;;;;;;6.63;5.82;;;26.50;71.90;;;;;;5071567;28;20427;-77
2021/06/08 12:40:45;;;;;;;6.65;5.70;;;26.40;75.50;;;;;;5087553;28;20021;-78
2021/06/08 12:43:11;;;;;;;8.07;6.30;;;26.30;76.10;;;;;;5071686;28;20036;-78